createdAt,value
2019-03-05T00:00:47.129Z,83.00
2019-03-05T00:03:15.435Z,83.37
2019-03-05T00:05:44.050Z,82.69
2019-03-05T00:08:12.366Z,82.76
2019-03-05T00:10:40.651Z,81.86
2019-03-05T00:13:08.935Z,82.21
2019-03-05T00:15:37.250Z,82.19
2019-03-05T00:18:05.710Z,81.74
2019-03-05T00:20:34.020Z,81.34
2019-03-05T00:23:02.311Z,81.33
2019-03-05T00:25:35.549Z,80.90
2019-03-05T00:28:12.302Z,80.84
2019-03-05T00:30:52.845Z,80.29
2019-03-05T00:33:33.065Z,79.76
2019-03-05T00:36:25.000Z,79.80
2019-03-05T00:39:13.188Z,79.92
2019-03-05T00:42:11.276Z,79.64
2019-03-05T00:45:02.115Z,78.99
2019-03-05T00:47:42.744Z,78.54
2019-03-05T00:50:33.294Z,78.50
2019-03-05T00:53:07.754Z,77.88
2019-03-05T00:55:45.023Z,78.12
2019-03-05T00:58:25.656Z,77.97
2019-03-05T01:01:15.812Z,77.60
2019-03-05T01:03:52.755Z,77.62
2019-03-05T01:06:24.407Z,77.76
2019-03-05T01:08:54.928Z,77.41
2019-03-05T01:11:24.012Z,77.58
2019-03-05T01:13:52.466Z,77.38
2019-03-05T01:16:22.404Z,77.04
2019-03-05T01:18:51.213Z,77.41
2019-03-05T01:21:19.789Z,77.06
2019-03-05T01:23:48.106Z,76.95
2019-03-05T01:26:16.655Z,77.13
2019-03-05T01:28:45.230Z,77.17
2019-03-05T01:31:15.170Z,77.33
2019-03-05T01:34:00.242Z,77.24
2019-03-05T01:36:33.177Z,77.13
2019-03-05T01:39:03.128Z,76.47
2019-03-05T01:41:31.414Z,76.60
2019-03-05T01:43:59.731Z,75.98
2019-03-05T01:46:28.008Z,76.33
2019-03-05T01:48:56.316Z,76.41
2019-03-05T01:51:24.626Z,76.33
2019-03-05T01:53:52.912Z,76.34
2019-03-05T01:56:21.297Z,76.42
2019-03-05T01:58:49.579Z,76.70
2019-03-05T02:01:17.875Z,76.81
2019-03-05T02:03:46.163Z,76.69
2019-03-05T02:06:14.582Z,76.66
2019-03-05T02:08:42.935Z,76.67
2019-03-05T02:11:11.903Z,76.90
2019-03-05T02:13:40.195Z,76.46
2019-03-05T02:16:08.508Z,76.85
2019-03-05T02:18:37.093Z,77.31
2019-03-05T02:21:05.380Z,77.83
2019-03-05T02:23:48.935Z,78.37
2019-03-05T02:26:32.554Z,78.77
2019-03-05T02:29:10.057Z,78.76
2019-03-05T02:31:58.681Z,79.22
2019-03-05T02:34:33.128Z,79.04
2019-03-05T02:37:19.791Z,78.74
2019-03-05T02:40:07.717Z,78.91
2019-03-05T02:42:47.932Z,78.69
2019-03-05T02:45:25.228Z,78.78
2019-03-05T02:48:13.200Z,78.82
2019-03-05T02:51:13.574Z,78.83
2019-03-05T02:54:03.342Z,79.36
2019-03-05T02:57:03.559Z,79.79
2019-03-05T02:59:32.142Z,80.62
2019-03-05T03:02:05.062Z,81.45
2019-03-05T03:04:35.007Z,82.00
2019-03-05T03:07:03.295Z,82.79
2019-03-05T03:09:34.775Z,83.30
2019-03-05T03:12:03.084Z,84.05
2019-03-05T03:14:31.389Z,84.41
2019-03-05T03:16:59.701Z,85.31
2019-03-05T03:19:27.981Z,85.76
2019-03-05T03:21:56.294Z,86.27
2019-03-05T03:24:24.653Z,86.43
2019-03-05T03:26:53.060Z,86.95
2019-03-05T03:29:21.333Z,87.56
2019-03-05T03:31:49.629Z,87.77
2019-03-05T03:34:17.926Z,87.80
2019-03-05T03:36:46.211Z,88.20
2019-03-05T03:39:14.533Z,88.48
2019-03-05T03:41:42.889Z,88.36
2019-03-05T03:44:11.192Z,87.77
2019-03-05T03:46:39.499Z,88.27
2019-03-05T03:49:07.805Z,88.32
2019-03-05T03:51:36.090Z,88.60
2019-03-05T03:54:04.422Z,88.55
2019-03-05T03:56:32.719Z,88.77
2019-03-05T03:59:01.019Z,88.96
2019-03-05T04:01:29.300Z,88.76
2019-03-05T04:03:58.070Z,88.74
2019-03-05T04:06:26.349Z,88.50
2019-03-05T04:08:54.714Z,88.51
2019-03-05T04:11:23.321Z,88.12
2019-03-05T04:13:51.630Z,88.02
2019-03-05T04:16:19.927Z,88.07
2019-03-05T04:18:48.211Z,87.96
2019-03-05T04:21:19.909Z,87.05
2019-03-05T04:23:46.520Z,87.10
2019-03-05T04:26:14.917Z,87.45
2019-03-05T04:28:43.195Z,86.36
2019-03-05T04:31:11.492Z,85.89
2019-03-05T04:33:39.790Z,86.30
2019-03-05T04:36:08.080Z,85.59
2019-03-05T04:38:36.360Z,85.98
2019-03-05T04:41:05.080Z,85.92
2019-03-05T04:43:33.372Z,85.78
2019-03-05T04:46:06.208Z,84.57
2019-03-05T04:48:34.492Z,85.00
2019-03-05T04:51:04.410Z,84.74
2019-03-05T04:53:32.729Z,84.42
2019-03-05T04:56:01.012Z,84.40
2019-03-05T04:58:29.306Z,84.24
2019-03-05T05:00:57.595Z,83.94
2019-03-05T05:03:25.916Z,84.13
2019-03-05T05:05:54.207Z,83.57
2019-03-05T05:08:22.498Z,84.20
2019-03-05T05:10:50.773Z,84.27
2019-03-05T05:13:19.068Z,84.80
2019-03-05T05:15:47.440Z,84.92
2019-03-05T05:20:33.306Z,84.96
2019-03-05T05:23:01.596Z,84.62
2019-03-05T05:25:29.902Z,85.18
2019-03-05T05:27:58.233Z,85.10
2019-03-05T05:30:32.947Z,85.01
2019-03-05T05:33:01.317Z,84.69
2019-03-05T05:35:30.134Z,84.44
2019-03-05T05:37:58.497Z,83.73
2019-03-05T05:40:40.809Z,83.80
2019-03-05T05:43:12.037Z,83.13
2019-03-05T05:45:45.599Z,83.63
2019-03-05T05:48:13.891Z,83.16
2019-03-05T05:50:42.642Z,83.13
2019-03-05T05:53:10.910Z,83.22
2019-03-05T05:55:39.576Z,83.06
2019-03-05T05:58:07.874Z,82.89
2019-03-05T06:00:38.085Z,82.27
2019-03-05T06:03:06.371Z,82.37
2019-03-05T06:05:34.931Z,82.63
2019-03-05T06:08:03.217Z,81.82
2019-03-05T06:10:31.521Z,82.05
2019-03-05T06:12:59.824Z,81.85
2019-03-05T06:15:28.274Z,82.07
2019-03-05T06:17:56.878Z,81.96
2019-03-05T06:20:25.164Z,81.78
2019-03-05T06:22:53.486Z,81.71
2019-03-05T06:25:21.838Z,81.91
2019-03-05T06:27:50.142Z,81.95
2019-03-05T06:30:38.173Z,81.76
2019-03-05T06:33:06.471Z,81.71
2019-03-05T06:35:34.755Z,81.35
2019-03-05T06:38:03.169Z,80.93
2019-03-05T06:40:32.604Z,81.17
2019-03-05T06:43:00.911Z,81.22
2019-03-05T06:45:29.285Z,80.99
2019-03-05T06:47:57.580Z,80.74
2019-03-05T06:50:27.196Z,80.72
2019-03-05T06:52:55.732Z,80.76
2019-03-05T06:55:24.422Z,80.67
2019-03-05T06:57:53.006Z,80.62
2019-03-05T07:00:36.173Z,80.54
2019-03-05T07:03:06.096Z,80.51
2019-03-05T07:06:10.980Z,80.28
2019-03-05T07:08:42.511Z,79.53
2019-03-05T07:11:23.104Z,79.82
2019-03-05T07:13:54.089Z,79.73
2019-03-05T07:16:25.576Z,79.43
2019-03-05T07:18:56.123Z,79.24
2019-03-05T07:21:53.473Z,79.32
2019-03-05T07:24:24.956Z,78.64
2019-03-05T07:26:53.232Z,78.81
2019-03-05T07:29:21.538Z,78.64
2019-03-05T07:31:50.157Z,78.46
2019-03-05T07:34:23.173Z,79.12
2019-03-05T07:36:51.457Z,79.28
2019-03-05T07:39:22.634Z,79.02
2019-03-05T07:41:50.924Z,79.19
2019-03-05T07:44:19.320Z,78.59
2019-03-05T07:46:47.955Z,78.98
2019-03-05T07:49:16.256Z,79.13
2019-03-05T07:51:44.893Z,79.04
2019-03-05T07:54:13.219Z,79.28
2019-03-05T07:56:41.496Z,79.10
2019-03-05T07:59:09.818Z,79.24
2019-03-05T08:01:38.120Z,79.27
2019-03-05T08:04:06.480Z,79.19
2019-03-05T08:06:35.049Z,79.77
2019-03-05T08:09:32.448Z,79.91
2019-03-05T08:12:03.910Z,79.54
2019-03-05T08:14:47.138Z,78.86
2019-03-05T08:17:15.786Z,79.19
2019-03-05T08:19:44.094Z,79.72
2019-03-05T08:22:12.380Z,79.21
2019-03-05T08:24:40.671Z,78.63
2019-03-05T08:27:09.276Z,79.29
2019-03-05T08:29:37.977Z,79.12
2019-03-05T08:32:06.283Z,78.83
2019-03-05T08:34:34.573Z,79.33
2019-03-05T08:37:02.879Z,78.32
2019-03-05T08:39:31.152Z,79.12
2019-03-05T08:41:59.473Z,79.32
2019-03-05T08:44:28.442Z,79.33
2019-03-05T08:46:56.780Z,78.95
2019-03-05T08:49:25.415Z,78.39
2019-03-05T08:51:53.693Z,78.67
2019-03-05T08:54:21.982Z,79.44
2019-03-05T08:56:50.645Z,79.55
2019-03-05T08:59:19.224Z,78.79
2019-03-05T09:01:47.504Z,78.05
2019-03-05T09:04:16.085Z,78.66
2019-03-05T09:06:44.645Z,78.84
2019-03-05T09:09:15.051Z,79.42
2019-03-05T09:11:43.339Z,79.42
2019-03-05T09:14:11.710Z,79.34
2019-03-05T09:16:39.986Z,79.88
2019-03-05T09:19:08.283Z,79.75
2019-03-05T09:21:36.569Z,80.07
2019-03-05T09:24:05.170Z,79.52
2019-03-05T09:26:33.456Z,79.90
2019-03-05T09:29:01.751Z,80.47
2019-03-05T09:31:30.025Z,80.72
2019-03-05T09:33:58.307Z,80.87
2019-03-05T09:36:26.961Z,80.83
2019-03-05T09:38:55.249Z,80.05
2019-03-05T09:41:23.554Z,80.02
2019-03-05T09:43:52.310Z,80.89
2019-03-05T09:46:20.640Z,80.66
2019-03-05T09:48:48.933Z,80.43
2019-03-05T09:51:17.537Z,79.85
2019-03-05T09:53:46.111Z,79.94
2019-03-05T09:56:14.548Z,80.66
2019-03-05T09:58:42.836Z,80.63
2019-03-05T10:01:11.209Z,79.89
2019-03-05T10:03:39.562Z,79.07
2019-03-05T10:06:07.906Z,77.93
2019-03-05T10:08:36.249Z,77.73
2019-03-05T10:11:04.678Z,77.38
2019-03-05T10:13:33.063Z,77.80
2019-03-05T10:16:01.349Z,76.45
2019-03-05T10:18:29.654Z,77.85
2019-03-05T10:20:57.934Z,78.49
2019-03-05T10:23:26.253Z,78.63
2019-03-05T10:25:54.542Z,78.81
2019-03-05T10:28:22.937Z,78.78
2019-03-05T10:30:51.336Z,78.43
2019-03-05T10:33:19.968Z,77.55
2019-03-05T10:35:48.346Z,77.33
2019-03-05T10:38:16.811Z,76.78
2019-03-05T10:40:57.418Z,75.59
2019-03-05T10:43:25.848Z,75.95
2019-03-05T10:45:54.574Z,76.08
2019-03-05T10:48:26.020Z,75.92
2019-03-05T10:50:54.633Z,76.25
2019-03-05T10:53:23.175Z,76.72
2019-03-05T10:55:52.093Z,76.72
2019-03-05T10:58:20.385Z,76.23
2019-03-05T11:00:51.169Z,75.65
2019-03-05T11:03:21.503Z,73.61
2019-03-05T11:05:49.855Z,73.80
2019-03-05T11:08:23.914Z,72.48
2019-03-05T11:10:53.099Z,71.75
2019-03-05T11:13:21.465Z,70.38
2019-03-05T11:15:55.474Z,70.78
2019-03-05T11:18:29.261Z,68.92
2019-03-05T11:20:54.126Z,69.46
2019-03-05T11:23:22.766Z,69.77
2019-03-05T11:25:51.051Z,68.24
2019-03-05T11:28:19.633Z,68.05
2019-03-05T11:30:47.989Z,67.54
2019-03-05T11:33:16.237Z,68.30
2019-03-05T11:35:44.531Z,68.33
2019-03-05T11:38:13.294Z,67.83
2019-03-05T11:40:41.788Z,67.74
2019-03-05T11:43:15.238Z,67.62
2019-03-05T11:45:44.174Z,67.49
2019-03-05T11:48:13.325Z,67.39
2019-03-05T11:50:41.630Z,67.18
2019-03-05T11:53:09.910Z,66.84
2019-03-05T11:55:38.228Z,66.82
2019-03-05T11:58:06.568Z,66.98
2019-03-05T12:00:39.331Z,66.52
2019-03-05T12:03:07.629Z,65.14
2019-03-05T12:05:36.277Z,66.23
2019-03-05T12:08:04.757Z,66.11
2019-03-05T12:10:33.053Z,65.34
2019-03-05T12:13:01.350Z,64.97
2019-03-05T12:15:31.604Z,63.75
2019-03-05T12:17:59.999Z,62.40
2019-03-05T12:20:28.384Z,62.21
2019-03-05T12:22:56.692Z,62.64
2019-03-05T12:25:26.372Z,62.75
2019-03-05T12:27:54.871Z,62.86
2019-03-05T12:30:26.334Z,62.50
2019-03-05T12:32:54.708Z,62.17
2019-03-05T12:35:23.366Z,61.59
2019-03-05T12:37:51.675Z,60.73
2019-03-05T12:40:23.510Z,60.71
2019-03-05T12:42:51.825Z,60.99
2019-03-05T12:45:21.397Z,59.77
2019-03-05T12:47:49.664Z,60.04
2019-03-05T12:50:19.982Z,58.67
2019-03-05T12:52:48.886Z,58.52
2019-03-05T12:55:17.947Z,58.32
2019-03-05T12:57:46.296Z,57.92
2019-03-05T13:00:21.076Z,57.67
2019-03-05T13:02:51.051Z,56.94
2019-03-05T13:05:19.528Z,55.61
2019-03-05T13:07:48.282Z,55.56
2019-03-05T13:10:34.966Z,55.23
2019-03-05T13:13:00.976Z,55.02
2019-03-05T13:15:42.305Z,54.93
2019-03-05T13:18:10.860Z,54.39
2019-03-05T13:20:39.167Z,52.77
2019-03-05T13:23:09.555Z,54.01
2019-03-05T13:25:38.399Z,54.47
2019-03-05T13:28:06.819Z,54.37
2019-03-05T13:30:35.270Z,54.51
2019-03-05T13:33:03.896Z,55.10
2019-03-05T13:35:32.479Z,54.86
2019-03-05T13:38:03.247Z,54.97
2019-03-05T13:40:34.051Z,53.99
2019-03-05T13:43:02.995Z,55.13
2019-03-05T13:45:31.295Z,55.82
2019-03-05T13:48:14.762Z,56.34
2019-03-05T13:50:53.400Z,56.06
2019-03-05T13:53:41.769Z,56.76
2019-03-05T13:56:29.814Z,57.28
2019-03-05T13:59:10.417Z,58.05
2019-03-05T14:01:38.715Z,57.89
2019-03-05T14:04:13.378Z,58.49
2019-03-05T14:06:50.755Z,58.63
2019-03-05T14:09:19.113Z,58.57
2019-03-05T14:11:49.135Z,57.96
2019-03-05T14:14:19.972Z,58.93
2019-03-05T14:16:50.136Z,59.07
2019-03-05T14:19:18.412Z,59.09
2019-03-05T14:21:46.726Z,59.09
2019-03-05T14:24:15.098Z,58.88
2019-03-05T14:26:43.428Z,59.05
2019-03-05T14:29:11.723Z,59.59
2019-03-05T14:31:40.023Z,59.69
2019-03-05T14:34:08.316Z,60.02
2019-03-05T14:36:36.631Z,60.12
2019-03-05T14:39:09.724Z,59.85
2019-03-05T14:41:38.207Z,59.67
2019-03-05T14:44:06.876Z,59.50
2019-03-05T14:46:35.437Z,59.42
2019-03-05T14:49:03.734Z,59.98
2019-03-05T14:51:32.129Z,59.75
2019-03-05T14:54:00.377Z,58.95
2019-03-05T14:56:28.735Z,58.02
2019-03-05T14:58:57.028Z,57.86
2019-03-05T15:01:25.326Z,57.50
2019-03-05T15:03:53.637Z,57.52
2019-03-05T15:06:21.938Z,56.96
2019-03-05T15:08:50.366Z,55.87
2019-03-05T15:11:18.659Z,55.04
2019-03-05T15:13:47.068Z,55.17
2019-03-05T15:16:15.368Z,54.86
2019-03-05T15:18:43.683Z,54.32
2019-03-05T15:21:11.977Z,54.93
2019-03-05T15:23:40.251Z,55.30
2019-03-05T15:26:08.596Z,55.17
2019-03-05T15:28:36.897Z,55.62
2019-03-05T15:31:05.358Z,55.82
2019-03-05T15:33:33.651Z,56.18
2019-03-05T15:36:01.995Z,56.19
2019-03-05T15:38:30.561Z,56.67
2019-03-05T15:40:58.951Z,56.19
2019-03-05T15:43:27.290Z,55.91
2019-03-05T15:45:55.917Z,55.83
2019-03-05T15:48:24.487Z,56.06
2019-03-05T15:50:53.041Z,56.41
2019-03-05T15:53:21.366Z,56.67
2019-03-05T15:55:49.944Z,56.97
2019-03-05T15:58:18.273Z,56.64
2019-03-05T16:00:46.553Z,56.75
2019-03-05T16:03:14.912Z,56.63
2019-03-05T16:05:43.238Z,56.73
2019-03-05T16:08:11.545Z,56.66
2019-03-05T16:10:39.817Z,56.93
2019-03-05T16:13:08.131Z,56.72
2019-03-05T16:15:36.414Z,56.59
2019-03-05T16:18:05.524Z,56.75
2019-03-05T16:20:34.818Z,56.93
2019-03-05T16:23:03.110Z,56.79
2019-03-05T16:25:31.442Z,56.74
2019-03-05T16:28:02.227Z,56.54
2019-03-05T16:30:45.016Z,56.94
2019-03-05T16:33:32.389Z,57.06
2019-03-05T16:36:16.378Z,57.13
2019-03-05T16:38:46.394Z,57.03
2019-03-05T16:41:32.391Z,56.63
2019-03-05T16:44:05.037Z,56.69
2019-03-05T16:46:38.186Z,56.53
2019-03-05T16:49:24.467Z,56.52
2019-03-05T16:52:00.471Z,56.74
2019-03-05T16:54:33.135Z,56.93
2019-03-05T16:57:03.086Z,57.09
2019-03-05T16:59:39.291Z,57.74
2019-03-05T17:02:12.455Z,58.40
2019-03-05T17:04:54.196Z,58.89
2019-03-05T17:07:29.904Z,58.75
2019-03-05T17:10:06.304Z,59.17
2019-03-05T17:12:34.607Z,59.43
2019-03-05T17:15:02.963Z,59.84
2019-03-05T17:17:31.839Z,60.21
2019-03-05T17:20:00.306Z,60.41
2019-03-05T17:22:28.717Z,61.01
2019-03-05T17:24:57.014Z,61.11
2019-03-05T17:27:25.404Z,61.71
2019-03-05T17:29:53.924Z,62.05
2019-03-05T17:32:22.616Z,62.35
2019-03-05T17:34:50.947Z,62.76
2019-03-05T17:37:19.583Z,63.16
2019-03-05T17:39:47.895Z,63.51
2019-03-05T17:42:16.468Z,64.03
2019-03-05T17:44:45.041Z,64.39
2019-03-05T17:47:13.376Z,64.76
2019-03-05T17:49:41.994Z,65.05
2019-03-05T17:52:10.319Z,65.57
2019-03-05T17:54:38.886Z,65.84
2019-03-05T17:57:08.995Z,66.27
2019-03-05T17:59:37.358Z,66.48
2019-03-05T18:02:05.738Z,66.54
2019-03-05T18:04:34.031Z,66.71
2019-03-05T18:07:02.511Z,66.88
2019-03-05T18:09:30.809Z,67.00
2019-03-05T18:11:59.108Z,67.20
2019-03-05T18:14:27.386Z,67.40
2019-03-05T18:16:55.978Z,67.40
2019-03-05T18:19:24.458Z,67.60
2019-03-05T18:21:52.771Z,67.69
2019-03-05T18:24:21.330Z,67.88
2019-03-05T18:26:49.644Z,68.09
2019-03-05T18:29:17.934Z,68.21
2019-03-05T18:31:46.227Z,68.34
2019-03-05T18:34:14.513Z,68.66
2019-03-05T18:36:43.156Z,68.81
2019-03-05T18:39:13.057Z,69.01
2019-03-05T18:41:41.740Z,69.27
2019-03-05T18:44:10.046Z,69.56
2019-03-05T18:46:38.338Z,69.82
2019-03-05T18:49:06.672Z,70.15
2019-03-05T18:51:34.948Z,70.41
2019-03-05T18:54:03.431Z,70.71
2019-03-05T18:56:32.526Z,70.84
2019-03-05T18:59:00.839Z,70.93
2019-03-05T19:01:29.179Z,71.15
2019-03-05T19:03:57.477Z,71.41
2019-03-05T19:06:25.783Z,71.45
2019-03-05T19:08:54.073Z,71.59
2019-03-05T19:11:22.371Z,71.78
2019-03-05T19:13:50.654Z,71.88
2019-03-05T19:16:18.969Z,71.93
2019-03-05T19:18:47.330Z,72.19
2019-03-05T19:21:15.625Z,72.27
2019-03-05T19:23:44.376Z,72.38
2019-03-05T19:26:12.752Z,72.53
2019-03-05T19:28:41.032Z,72.58
2019-03-05T19:31:09.418Z,72.48
2019-03-05T19:33:37.870Z,72.24
2019-03-05T19:36:06.586Z,72.00
2019-03-05T19:38:34.887Z,71.79
2019-03-05T19:41:03.184Z,71.81
2019-03-05T19:43:31.504Z,71.58
2019-03-05T19:46:00.088Z,71.36
2019-03-05T19:48:28.568Z,71.32
2019-03-05T19:50:57.158Z,71.25
2019-03-05T19:53:25.488Z,71.12
2019-03-05T19:55:53.770Z,71.08
2019-03-05T19:58:22.086Z,71.03
2019-03-05T20:00:53.634Z,70.95
2019-03-05T20:03:22.006Z,70.94
2019-03-05T20:05:50.559Z,70.89
2019-03-05T20:08:18.872Z,70.99
2019-03-05T20:10:47.377Z,71.16
2019-03-05T20:13:15.951Z,71.29
2019-03-05T20:15:44.536Z,71.36
2019-03-05T20:18:12.845Z,71.48
2019-03-05T20:20:41.133Z,71.54
2019-03-05T20:23:09.436Z,71.67
2019-03-05T20:25:38.712Z,71.80
2019-03-05T20:28:07.472Z,71.80
2019-03-05T20:30:35.773Z,71.95
2019-03-05T20:33:18.243Z,72.21
2019-03-05T20:35:47.121Z,72.27
2019-03-05T20:38:15.717Z,72.25
2019-03-05T20:40:44.285Z,72.33
2019-03-05T20:43:12.865Z,72.36
2019-03-05T20:45:50.773Z,72.56
2019-03-05T20:48:19.071Z,72.63
2019-03-05T20:50:47.737Z,72.79
2019-03-05T20:53:16.030Z,72.94
2019-03-05T20:55:44.348Z,73.15
2019-03-05T20:58:12.971Z,73.25
2019-03-05T21:00:41.638Z,73.28
2019-03-05T21:03:12.095Z,73.31
2019-03-05T21:05:44.459Z,73.42
2019-03-05T21:08:13.088Z,73.63
2019-03-05T21:10:41.751Z,73.74
2019-03-05T21:13:10.324Z,73.96
2019-03-05T21:15:38.776Z,74.10
2019-03-05T21:18:12.408Z,74.38
2019-03-05T21:20:40.684Z,74.69
2019-03-05T21:23:08.996Z,74.83
2019-03-05T21:25:37.296Z,74.97
2019-03-05T21:28:05.599Z,75.27
2019-03-05T21:30:33.985Z,75.40
2019-03-05T21:33:02.309Z,75.61
2019-03-05T21:35:30.605Z,75.76
2019-03-05T21:37:59.065Z,75.97
2019-03-05T21:40:28.696Z,76.06
2019-03-05T21:42:57.267Z,76.17
2019-03-05T21:45:43.483Z,76.31
2019-03-05T21:48:12.306Z,76.44
2019-03-05T21:50:40.624Z,76.51
2019-03-05T21:53:08.907Z,76.61
2019-03-05T21:55:37.219Z,76.76
2019-03-05T21:58:05.805Z,76.87
2019-03-05T22:00:36.100Z,76.81
2019-03-05T22:03:05.529Z,76.84
2019-03-05T22:05:33.850Z,76.85
2019-03-05T22:08:02.137Z,76.88
2019-03-05T22:10:30.772Z,76.92
2019-03-05T22:12:59.185Z,76.87
2019-03-05T22:15:30.087Z,76.85
2019-03-05T22:17:58.391Z,76.96
2019-03-05T22:20:26.698Z,77.08
2019-03-05T22:22:55.064Z,77.05
2019-03-05T22:25:24.206Z,77.20
2019-03-05T22:27:52.566Z,77.37
2019-03-05T22:30:23.125Z,77.40
2019-03-05T22:32:51.828Z,77.41
2019-03-05T22:35:20.316Z,77.50
2019-03-05T22:37:48.855Z,77.60
2019-03-05T22:40:18.785Z,77.70
2019-03-05T22:42:47.369Z,77.79
2019-03-05T22:45:17.604Z,77.87
2019-03-05T22:47:46.122Z,78.04
2019-03-05T22:50:15.844Z,78.14
2019-03-05T22:52:44.327Z,78.03
2019-03-05T22:55:14.478Z,78.05
2019-03-05T22:57:42.931Z,78.26
2019-03-05T23:00:14.770Z,78.42
2019-03-05T23:02:43.083Z,78.37
2019-03-05T23:05:12.938Z,78.52
2019-03-05T23:07:41.218Z,78.62
2019-03-05T23:10:13.677Z,78.61
2019-03-05T23:12:42.148Z,78.75
2019-03-05T23:15:12.715Z,78.83
2019-03-05T23:17:41.020Z,78.91
2019-03-05T23:20:14.292Z,78.98
2019-03-05T23:22:42.761Z,79.08
2019-03-05T23:25:15.196Z,79.10
2019-03-05T23:27:43.923Z,79.06
2019-03-05T23:30:20.211Z,79.12
2019-03-05T23:32:54.778Z,79.35
2019-03-05T23:35:23.074Z,79.46
2019-03-05T23:37:51.371Z,79.66
2019-03-05T23:40:20.017Z,79.72
2019-03-05T23:42:48.494Z,79.79
2019-03-05T23:45:20.079Z,79.93
2019-03-05T23:47:48.444Z,80.07
2019-03-05T23:50:17.273Z,80.13
2019-03-05T23:52:45.843Z,80.26
2019-03-05T23:55:14.791Z,80.33
2019-03-05T23:57:43.384Z,80.31
